sensor_id;sensor_type;location;lat;lon;timestamp;P1;durP1;ratioP1;P2;durP2;ratioP2
79126;SDS011;68528;48.814;8.904;2023-06-24T00:27:05;4.85;;;3.80;;
79126;SDS011;68528;48.814;8.904;2023-06-24T00:29:30;4.88;;;3.45;;
79126;SDS011;68528;48.814;8.904;2023-06-24T00:31:57;6.85;;;4.57;;
79126;SDS011;68528;48.814;8.904;2023-06-24T00:34:22;5.47;;;3.50;;
79126;SDS011;68528;48.814;8.904;2023-06-24T00:36:48;5.47;;;3.70;;
79126;SDS011;68528;48.814;8.904;2023-06-24T00:39:14;6.03;;;3.83;;
79126;SDS011;68528;48.814;8.904;2023-06-24T00:41:39;6.32;;;3.95;;
79126;SDS011;68528;48.814;8.904;2023-06-24T00:44:04;5.97;;;4.15;;
79126;SDS011;68528;48.814;8.904;2023-06-24T00:46:31;5.93;;;4.25;;
79126;SDS011;68528;48.814;8.904;2023-06-24T00:48:58;6.47;;;3.85;;
79126;SDS011;68528;48.814;8.904;2023-06-24T00:51:48;5.43;;;4.05;;
79126;SDS011;68528;48.814;8.904;2023-06-24T00:54:16;8.77;;;4.25;;
79126;SDS011;68528;48.814;8.904;2023-06-24T00:56:42;6.03;;;3.88;;
79126;SDS011;68528;48.814;8.904;2023-06-24T00:59:08;5.30;;;3.70;;
79126;SDS011;68528;48.814;8.904;2023-06-24T01:01:37;6.03;;;3.80;;
79126;SDS011;68528;48.814;8.904;2023-06-24T01:04:03;8.25;;;4.00;;
79126;SDS011;68528;48.814;8.904;2023-06-24T01:09:23;6.13;;;3.80;;
79126;SDS011;68528;48.814;8.904;2023-06-24T01:11:49;5.47;;;3.90;;
79126;SDS011;68528;48.814;8.904;2023-06-24T01:14:15;5.78;;;3.83;;
79126;SDS011;68528;48.814;8.904;2023-06-24T01:22:30;5.93;;;3.80;;
79126;SDS011;68528;48.814;8.904;2023-06-24T01:33:29;7.07;;;3.60;;
79126;SDS011;68528;48.814;8.904;2023-06-24T01:36:01;4.82;;;3.50;;
79126;SDS011;68528;48.814;8.904;2023-06-24T01:38:36;5.30;;;3.65;;
79126;SDS011;68528;48.814;8.904;2023-06-24T01:41:18;6.68;;;3.78;;
79126;SDS011;68528;48.814;8.904;2023-06-24T01:43:50;8.07;;;3.83;;
79126;SDS011;68528;48.814;8.904;2023-06-24T01:46:22;6.70;;;3.90;;
79126;SDS011;68528;48.814;8.904;2023-06-24T01:48:50;6.13;;;4.03;;
79126;SDS011;68528;48.814;8.904;2023-06-24T01:51:20;5.53;;;3.60;;
79126;SDS011;68528;48.814;8.904;2023-06-24T02:04:02;5.07;;;3.60;;
79126;SDS011;68528;48.814;8.904;2023-06-24T02:06:33;7.38;;;3.95;;
79126;SDS011;68528;48.814;8.904;2023-06-24T02:09:01;6.00;;;4.07;;
79126;SDS011;68528;48.814;8.904;2023-06-24T02:11:28;5.63;;;3.72;;
79126;SDS011;68528;48.814;8.904;2023-06-24T02:13:56;5.90;;;3.95;;
79126;SDS011;68528;48.814;8.904;2023-06-24T02:16:24;4.75;;;3.60;;
79126;SDS011;68528;48.814;8.904;2023-06-24T02:18:53;6.55;;;3.80;;
79126;SDS011;68528;48.814;8.904;2023-06-24T02:21:20;7.50;;;4.10;;
79126;SDS011;68528;48.814;8.904;2023-06-24T02:23:49;5.68;;;3.78;;
79126;SDS011;68528;48.814;8.904;2023-06-24T02:26:15;5.03;;;3.60;;
79126;SDS011;68528;48.814;8.904;2023-06-24T02:28:43;5.20;;;3.80;;
79126;SDS011;68528;48.814;8.904;2023-06-24T02:31:11;5.90;;;4.30;;
79126;SDS011;68528;48.814;8.904;2023-06-24T02:33:37;5.72;;;4.00;;
79126;SDS011;68528;48.814;8.904;2023-06-24T02:36:03;7.22;;;4.07;;
79126;SDS011;68528;48.814;8.904;2023-06-24T02:38:32;4.93;;;3.50;;
79126;SDS011;68528;48.814;8.904;2023-06-24T02:41:29;6.95;;;4.05;;
79126;SDS011;68528;48.814;8.904;2023-06-24T02:43:54;5.90;;;3.85;;
79126;SDS011;68528;48.814;8.904;2023-06-24T02:46:20;6.53;;;4.07;;
79126;SDS011;68528;48.814;8.904;2023-06-24T02:48:47;5.72;;;4.25;;
79126;SDS011;68528;48.814;8.904;2023-06-24T02:51:14;5.93;;;4.18;;
79126;SDS011;68528;48.814;8.904;2023-06-24T02:53:40;8.25;;;4.93;;
79126;SDS011;68528;48.814;8.904;2023-06-24T02:56:06;6.82;;;4.35;;
79126;SDS011;68528;48.814;8.904;2023-06-24T02:58:35;8.20;;;4.50;;
79126;SDS011;68528;48.814;8.904;2023-06-24T03:01:02;5.68;;;4.60;;
79126;SDS011;68528;48.814;8.904;2023-06-24T03:03:28;7.63;;;4.68;;
79126;SDS011;68528;48.814;8.904;2023-06-24T03:05:54;6.70;;;4.80;;
79126;SDS011;68528;48.814;8.904;2023-06-24T03:08:22;7.70;;;4.85;;
79126;SDS011;68528;48.814;8.904;2023-06-24T03:10:49;7.65;;;5.07;;
79126;SDS011;68528;48.814;8.904;2023-06-24T03:13:15;8.50;;;4.93;;
79126;SDS011;68528;48.814;8.904;2023-06-24T03:15:41;8.50;;;4.95;;
79126;SDS011;68528;48.814;8.904;2023-06-24T03:24:27;8.45;;;4.88;;
79126;SDS011;68528;48.814;8.904;2023-06-24T03:27:51;7.00;;;5.00;;
79126;SDS011;68528;48.814;8.904;2023-06-24T03:30:40;6.50;;;4.80;;
79126;SDS011;68528;48.814;8.904;2023-06-24T03:33:05;7.45;;;5.45;;
79126;SDS011;68528;48.814;8.904;2023-06-24T03:35:31;5.75;;;4.28;;
79126;SDS011;68528;48.814;8.904;2023-06-24T03:37:57;8.75;;;4.68;;
79126;SDS011;68528;48.814;8.904;2023-06-24T03:40:23;7.28;;;4.68;;
79126;SDS011;68528;48.814;8.904;2023-06-24T03:42:49;6.43;;;4.65;;
79126;SDS011;68528;48.814;8.904;2023-06-24T03:45:14;9.27;;;4.82;;
79126;SDS011;68528;48.814;8.904;2023-06-24T03:52:45;8.25;;;5.53;;
79126;SDS011;68528;48.814;8.904;2023-06-24T03:55:14;7.28;;;5.20;;
79126;SDS011;68528;48.814;8.904;2023-06-24T03:57:44;7.20;;;4.95;;
79126;SDS011;68528;48.814;8.904;2023-06-24T04:00:11;8.88;;;4.72;;
79126;SDS011;68528;48.814;8.904;2023-06-24T04:02:41;5.32;;;4.63;;
79126;SDS011;68528;48.814;8.904;2023-06-24T04:05:07;6.72;;;4.82;;
79126;SDS011;68528;48.814;8.904;2023-06-24T04:07:32;7.32;;;4.97;;
79126;SDS011;68528;48.814;8.904;2023-06-24T04:10:18;6.50;;;4.78;;
79126;SDS011;68528;48.814;8.904;2023-06-24T04:12:49;5.65;;;4.40;;
79126;SDS011;68528;48.814;8.904;2023-06-24T04:15:15;7.00;;;4.50;;
79126;SDS011;68528;48.814;8.904;2023-06-24T04:17:40;6.28;;;4.60;;
79126;SDS011;68528;48.814;8.904;2023-06-24T04:20:06;6.53;;;4.55;;
79126;SDS011;68528;48.814;8.904;2023-06-24T04:22:33;7.03;;;4.45;;
79126;SDS011;68528;48.814;8.904;2023-06-24T04:25:00;6.97;;;5.07;;
79126;SDS011;68528;48.814;8.904;2023-06-24T04:27:25;5.78;;;4.97;;
79126;SDS011;68528;48.814;8.904;2023-06-24T05:07:00;9.25;;;4.20;;
79126;SDS011;68528;48.814;8.904;2023-06-24T05:09:25;8.27;;;4.82;;
79126;SDS011;68528;48.814;8.904;2023-06-24T06:00:55;5.40;;;4.20;;
79126;SDS011;68528;48.814;8.904;2023-06-24T06:03:21;7.70;;;4.25;;
79126;SDS011;68528;48.814;8.904;2023-06-24T06:05:48;5.30;;;4.28;;
79126;SDS011;68528;48.814;8.904;2023-06-24T06:08:14;5.35;;;4.20;;
79126;SDS011;68528;48.814;8.904;2023-06-24T06:10:45;5.32;;;4.25;;
79126;SDS011;68528;48.814;8.904;2023-06-24T06:13:30;6.93;;;4.30;;
79126;SDS011;68528;48.814;8.904;2023-06-24T06:15:56;5.78;;;4.53;;
79126;SDS011;68528;48.814;8.904;2023-06-24T06:18:31;5.57;;;4.18;;
79126;SDS011;68528;48.814;8.904;2023-06-24T06:21:02;6.40;;;4.50;;
79126;SDS011;68528;48.814;8.904;2023-06-24T06:23:28;6.40;;;4.45;;
79126;SDS011;68528;48.814;8.904;2023-06-24T06:25:56;5.40;;;4.18;;
79126;SDS011;68528;48.814;8.904;2023-06-24T06:28:22;8.02;;;4.40;;
79126;SDS011;68528;48.814;8.904;2023-06-24T06:30:47;6.53;;;3.95;;
79126;SDS011;68528;48.814;8.904;2023-06-24T06:33:13;4.45;;;3.50;;
79126;SDS011;68528;48.814;8.904;2023-06-24T06:35:38;10.02;;;4.60;;
79126;SDS011;68528;48.814;8.904;2023-06-24T06:38:35;5.47;;;3.92;;
79126;SDS011;68528;48.814;8.904;2023-06-24T06:41:04;5.85;;;4.32;;
79126;SDS011;68528;48.814;8.904;2023-06-24T06:43:30;4.65;;;4.15;;
79126;SDS011;68528;48.814;8.904;2023-06-24T06:46:00;7.28;;;3.90;;
79126;SDS011;68528;48.814;8.904;2023-06-24T06:48:25;4.32;;;3.45;;
79126;SDS011;68528;48.814;8.904;2023-06-24T06:50:51;5.40;;;4.25;;
79126;SDS011;68528;48.814;8.904;2023-06-24T06:53:18;5.30;;;4.07;;
79126;SDS011;68528;48.814;8.904;2023-06-24T07:27:42;5.80;;;3.75;;
79126;SDS011;68528;48.814;8.904;2023-06-24T07:30:45;6.97;;;3.53;;
79126;SDS011;68528;48.814;8.904;2023-06-24T07:33:17;5.55;;;3.60;;
79126;SDS011;68528;48.814;8.904;2023-06-24T07:45:04;4.35;;;3.55;;
79126;SDS011;68528;48.814;8.904;2023-06-24T07:47:30;5.50;;;3.35;;
79126;SDS011;68528;48.814;8.904;2023-06-24T07:52:45;5.55;;;3.40;;
79126;SDS011;68528;48.814;8.904;2023-06-24T07:55:13;3.72;;;3.15;;
79126;SDS011;68528;48.814;8.904;2023-06-24T07:57:39;5.18;;;3.28;;
79126;SDS011;68528;48.814;8.904;2023-06-24T08:00:06;4.30;;;3.10;;
79126;SDS011;68528;48.814;8.904;2023-06-24T08:02:34;3.83;;;2.72;;
79126;SDS011;68528;48.814;8.904;2023-06-24T08:05:00;3.65;;;2.78;;
79126;SDS011;68528;48.814;8.904;2023-06-24T08:07:25;8.13;;;3.20;;
79126;SDS011;68528;48.814;8.904;2023-06-24T08:16:16;4.05;;;2.97;;
79126;SDS011;68528;48.814;8.904;2023-06-24T08:18:45;5.55;;;3.10;;
79126;SDS011;68528;48.814;8.904;2023-06-24T09:26:00;3.40;;;2.50;;
79126;SDS011;68528;48.814;8.904;2023-06-24T09:28:30;2.92;;;2.20;;
79126;SDS011;68528;48.814;8.904;2023-06-24T09:31:05;5.43;;;2.78;;
79126;SDS011;68528;48.814;8.904;2023-06-24T09:33:32;4.32;;;2.47;;
79126;SDS011;68528;48.814;8.904;2023-06-24T09:36:01;3.50;;;2.47;;
79126;SDS011;68528;48.814;8.904;2023-06-24T09:38:36;4.15;;;2.58;;
79126;SDS011;68528;48.814;8.904;2023-06-24T09:41:03;2.80;;;2.08;;
79126;SDS011;68528;48.814;8.904;2023-06-24T09:43:30;4.10;;;2.42;;
79126;SDS011;68528;48.814;8.904;2023-06-24T09:46:02;2.63;;;2.28;;
79126;SDS011;68528;48.814;8.904;2023-06-24T09:48:30;2.85;;;2.20;;
79126;SDS011;68528;48.814;8.904;2023-06-24T09:51:01;3.97;;;2.30;;
79126;SDS011;68528;48.814;8.904;2023-06-24T09:53:32;2.75;;;2.28;;
79126;SDS011;68528;48.814;8.904;2023-06-24T10:01:40;3.92;;;2.60;;
79126;SDS011;68528;48.814;8.904;2023-06-24T10:04:08;3.72;;;2.53;;
79126;SDS011;68528;48.814;8.904;2023-06-24T10:06:35;4.13;;;2.85;;
79126;SDS011;68528;48.814;8.904;2023-06-24T10:09:01;3.42;;;2.60;;
79126;SDS011;68528;48.814;8.904;2023-06-24T10:11:31;6.40;;;2.33;;
79126;SDS011;68528;48.814;8.904;2023-06-24T10:13:57;3.30;;;2.53;;
79126;SDS011;68528;48.814;8.904;2023-06-24T10:16:30;3.83;;;2.50;;
79126;SDS011;68528;48.814;8.904;2023-06-24T10:19:03;4.60;;;2.47;;
79126;SDS011;68528;48.814;8.904;2023-06-24T10:21:47;2.95;;;2.55;;
79126;SDS011;68528;48.814;8.904;2023-06-24T10:24:27;2.78;;;2.30;;
79126;SDS011;68528;48.814;8.904;2023-06-24T10:27:03;2.95;;;2.45;;
79126;SDS011;68528;48.814;8.904;2023-06-24T10:29:34;2.58;;;2.10;;
79126;SDS011;68528;48.814;8.904;2023-06-24T10:32:04;2.40;;;2.10;;
79126;SDS011;68528;48.814;8.904;2023-06-24T10:37:38;3.13;;;2.13;;
79126;SDS011;68528;48.814;8.904;2023-06-24T10:54:08;3.80;;;2.38;;
79126;SDS011;68528;48.814;8.904;2023-06-24T10:56:33;4.75;;;2.65;;
79126;SDS011;68528;48.814;8.904;2023-06-24T10:58:58;2.65;;;2.15;;
79126;SDS011;68528;48.814;8.904;2023-06-24T11:17:22;3.50;;;2.03;;
79126;SDS011;68528;48.814;8.904;2023-06-24T11:19:49;2.88;;;1.88;;
79126;SDS011;68528;48.814;8.904;2023-06-24T11:22:15;4.55;;;2.65;;
79126;SDS011;68528;48.814;8.904;2023-06-24T11:24:43;3.10;;;2.00;;
79126;SDS011;68528;48.814;8.904;2023-06-24T11:27:08;3.25;;;2.45;;
79126;SDS011;68528;48.814;8.904;2023-06-24T11:29:52;3.67;;;2.13;;
79126;SDS011;68528;48.814;8.904;2023-06-24T11:32:20;3.17;;;2.65;;
79126;SDS011;68528;48.814;8.904;2023-06-24T11:34:46;3.65;;;2.20;;
79126;SDS011;68528;48.814;8.904;2023-06-24T11:37:13;3.08;;;2.40;;
79126;SDS011;68528;48.814;8.904;2023-06-24T11:39:44;5.18;;;2.53;;
79126;SDS011;68528;48.814;8.904;2023-06-24T11:45:10;3.00;;;2.30;;
79126;SDS011;68528;48.814;8.904;2023-06-24T11:53:49;2.58;;;2.33;;
79126;SDS011;68528;48.814;8.904;2023-06-24T13:24:21;2.15;;;1.80;;
79126;SDS011;68528;48.814;8.904;2023-06-24T13:26:46;2.50;;;1.92;;
79126;SDS011;68528;48.814;8.904;2023-06-24T13:29:12;3.78;;;1.95;;
79126;SDS011;68528;48.814;8.904;2023-06-24T13:31:39;2.10;;;1.73;;
79126;SDS011;68528;48.814;8.904;2023-06-24T13:34:08;4.43;;;2.30;;
79126;SDS011;68528;48.814;8.904;2023-06-24T13:36:34;2.13;;;1.60;;
79126;SDS011;68528;48.814;8.904;2023-06-24T13:39:26;4.38;;;1.73;;
79126;SDS011;68528;48.814;8.904;2023-06-24T13:42:01;2.72;;;1.73;;
79126;SDS011;68528;48.814;8.904;2023-06-24T13:44:27;3.65;;;2.08;;
79126;SDS011;68528;48.814;8.904;2023-06-24T13:46:52;2.42;;;1.90;;
79126;SDS011;68528;48.814;8.904;2023-06-24T13:49:18;2.55;;;1.85;;
79126;SDS011;68528;48.814;8.904;2023-06-24T13:51:44;2.25;;;1.85;;
79126;SDS011;68528;48.814;8.904;2023-06-24T13:54:09;3.10;;;2.00;;
79126;SDS011;68528;48.814;8.904;2023-06-24T13:56:42;2.60;;;1.77;;
79126;SDS011;68528;48.814;8.904;2023-06-24T13:59:08;4.25;;;1.90;;
79126;SDS011;68528;48.814;8.904;2023-06-24T14:01:36;2.72;;;2.00;;
79126;SDS011;68528;48.814;8.904;2023-06-24T14:04:02;4.18;;;1.90;;
79126;SDS011;68528;48.814;8.904;2023-06-24T14:06:28;3.50;;;2.05;;
79126;SDS011;68528;48.814;8.904;2023-06-24T14:08:53;2.70;;;2.22;;
79126;SDS011;68528;48.814;8.904;2023-06-24T14:11:18;4.35;;;2.13;;
79126;SDS011;68528;48.814;8.904;2023-06-24T14:13:46;2.75;;;1.98;;
79126;SDS011;68528;48.814;8.904;2023-06-24T14:16:13;3.97;;;2.72;;
79126;SDS011;68528;48.814;8.904;2023-06-24T14:18:45;4.15;;;2.03;;
79126;SDS011;68528;48.814;8.904;2023-06-24T14:21:11;3.03;;;2.30;;
79126;SDS011;68528;48.814;8.904;2023-06-24T14:38:08;2.80;;;2.00;;
79126;SDS011;68528;48.814;8.904;2023-06-24T14:40:33;3.38;;;1.95;;
79126;SDS011;68528;48.814;8.904;2023-06-24T14:42:59;3.28;;;2.22;;
79126;SDS011;68528;48.814;8.904;2023-06-24T14:45:30;2.60;;;1.92;;
79126;SDS011;68528;48.814;8.904;2023-06-24T14:47:56;2.88;;;2.10;;
79126;SDS011;68528;48.814;8.904;2023-06-24T14:50:22;2.90;;;2.13;;
79126;SDS011;68528;48.814;8.904;2023-06-24T14:52:48;4.40;;;2.05;;
79126;SDS011;68528;48.814;8.904;2023-06-24T14:55:30;3.03;;;2.42;;
79126;SDS011;68528;48.814;8.904;2023-06-24T14:57:57;2.92;;;2.33;;
79126;SDS011;68528;48.814;8.904;2023-06-24T15:00:26;4.25;;;2.50;;
79126;SDS011;68528;48.814;8.904;2023-06-24T15:02:53;3.08;;;2.30;;
79126;SDS011;68528;48.814;8.904;2023-06-24T15:05:18;3.28;;;2.63;;
79126;SDS011;68528;48.814;8.904;2023-06-24T15:07:44;4.20;;;2.17;;
79126;SDS011;68528;48.814;8.904;2023-06-24T15:10:10;2.60;;;2.13;;
79126;SDS011;68528;48.814;8.904;2023-06-24T15:12:42;2.50;;;1.80;;
79126;SDS011;68528;48.814;8.904;2023-06-24T15:15:14;2.70;;;2.28;;
79126;SDS011;68528;48.814;8.904;2023-06-24T15:17:40;2.25;;;1.83;;
79126;SDS011;68528;48.814;8.904;2023-06-24T15:20:09;4.28;;;2.65;;
79126;SDS011;68528;48.814;8.904;2023-06-24T15:22:35;2.83;;;2.40;;
79126;SDS011;68528;48.814;8.904;2023-06-24T15:25:04;3.38;;;2.45;;
79126;SDS011;68528;48.814;8.904;2023-06-24T15:27:30;3.72;;;2.33;;
79126;SDS011;68528;48.814;8.904;2023-06-24T15:30:47;3.60;;;2.72;;
79126;SDS011;68528;48.814;8.904;2023-06-24T15:33:39;2.88;;;2.25;;
79126;SDS011;68528;48.814;8.904;2023-06-24T15:36:05;3.65;;;2.60;;
79126;SDS011;68528;48.814;8.904;2023-06-24T15:38:30;2.80;;;2.30;;
79126;SDS011;68528;48.814;8.904;2023-06-24T15:40:56;4.20;;;2.40;;
79126;SDS011;68528;48.814;8.904;2023-06-24T15:43:22;3.10;;;2.35;;
79126;SDS011;68528;48.814;8.904;2023-06-24T15:45:48;4.45;;;2.67;;
79126;SDS011;68528;48.814;8.904;2023-06-24T15:48:17;2.75;;;2.17;;
79126;SDS011;68528;48.814;8.904;2023-06-24T15:50:47;6.00;;;2.25;;
79126;SDS011;68528;48.814;8.904;2023-06-24T15:53:20;3.45;;;2.22;;
79126;SDS011;68528;48.814;8.904;2023-06-24T15:56:08;5.00;;;2.85;;
79126;SDS011;68528;48.814;8.904;2023-06-24T15:58:33;3.60;;;2.33;;
79126;SDS011;68528;48.814;8.904;2023-06-24T16:00:59;3.92;;;2.30;;
79126;SDS011;68528;48.814;8.904;2023-06-24T16:03:26;2.67;;;2.20;;
79126;SDS011;68528;48.814;8.904;2023-06-24T16:05:52;4.20;;;2.50;;
79126;SDS011;68528;48.814;8.904;2023-06-24T16:09:04;3.30;;;2.42;;
79126;SDS011;68528;48.814;8.904;2023-06-24T16:11:29;3.13;;;2.10;;
79126;SDS011;68528;48.814;8.904;2023-06-24T16:13:55;3.20;;;2.25;;
79126;SDS011;68528;48.814;8.904;2023-06-24T16:16:20;3.33;;;2.25;;
79126;SDS011;68528;48.814;8.904;2023-06-24T16:18:46;3.20;;;2.28;;
79126;SDS011;68528;48.814;8.904;2023-06-24T16:21:11;3.35;;;2.45;;
79126;SDS011;68528;48.814;8.904;2023-06-24T16:23:37;3.28;;;2.00;;
79126;SDS011;68528;48.814;8.904;2023-06-24T16:26:08;1.98;;;1.67;;
79126;SDS011;68528;48.814;8.904;2023-06-24T17:18:32;2.97;;;2.17;;
79126;SDS011;68528;48.814;8.904;2023-06-24T17:21:12;2.88;;;2.05;;
79126;SDS011;68528;48.814;8.904;2023-06-24T17:24:01;3.88;;;2.47;;
79126;SDS011;68528;48.814;8.904;2023-06-24T17:26:28;3.72;;;2.15;;
79126;SDS011;68528;48.814;8.904;2023-06-24T17:44:12;3.47;;;1.85;;
79126;SDS011;68528;48.814;8.904;2023-06-24T17:46:37;3.00;;;2.67;;
79126;SDS011;68528;48.814;8.904;2023-06-24T17:49:03;4.10;;;2.20;;
79126;SDS011;68528;48.814;8.904;2023-06-24T17:51:29;4.30;;;2.40;;
79126;SDS011;68528;48.814;8.904;2023-06-24T17:53:54;3.58;;;2.58;;
79126;SDS011;68528;48.814;8.904;2023-06-24T17:56:36;5.47;;;2.60;;
79126;SDS011;68528;48.814;8.904;2023-06-24T18:01:57;5.22;;;2.33;;
79126;SDS011;68528;48.814;8.904;2023-06-24T18:04:29;4.53;;;2.17;;
79126;SDS011;68528;48.814;8.904;2023-06-24T18:06:54;2.67;;;2.00;;
79126;SDS011;68528;48.814;8.904;2023-06-24T18:09:22;3.25;;;2.33;;
79126;SDS011;68528;48.814;8.904;2023-06-24T18:11:48;3.47;;;2.20;;
79126;SDS011;68528;48.814;8.904;2023-06-24T18:14:14;3.72;;;2.10;;
79126;SDS011;68528;48.814;8.904;2023-06-24T18:16:40;4.57;;;2.10;;
79126;SDS011;68528;48.814;8.904;2023-06-24T18:19:15;3.08;;;2.15;;
79126;SDS011;68528;48.814;8.904;2023-06-24T18:22:00;4.78;;;2.08;;
79126;SDS011;68528;48.814;8.904;2023-06-24T18:24:35;4.30;;;2.10;;
79126;SDS011;68528;48.814;8.904;2023-06-24T18:31:02;3.47;;;2.28;;
79126;SDS011;68528;48.814;8.904;2023-06-24T19:21:40;4.63;;;2.90;;
79126;SDS011;68528;48.814;8.904;2023-06-24T19:24:05;4.13;;;2.38;;
79126;SDS011;68528;48.814;8.904;2023-06-24T19:26:31;5.05;;;2.47;;
79126;SDS011;68528;48.814;8.904;2023-06-24T19:29:00;6.45;;;2.20;;
79126;SDS011;68528;48.814;8.904;2023-06-24T19:31:47;4.85;;;3.03;;
79126;SDS011;68528;48.814;8.904;2023-06-24T19:34:16;3.45;;;2.30;;
79126;SDS011;68528;48.814;8.904;2023-06-24T19:36:43;6.25;;;2.85;;
79126;SDS011;68528;48.814;8.904;2023-06-24T19:39:09;6.03;;;2.70;;
79126;SDS011;68528;48.814;8.904;2023-06-24T19:41:34;9.85;;;3.00;;
79126;SDS011;68528;48.814;8.904;2023-06-24T19:44:05;5.00;;;3.15;;
79126;SDS011;68528;48.814;8.904;2023-06-24T19:46:32;4.85;;;3.35;;
79126;SDS011;68528;48.814;8.904;2023-06-24T19:49:03;3.47;;;2.97;;
79126;SDS011;68528;48.814;8.904;2023-06-24T19:51:51;3.25;;;2.10;;
79126;SDS011;68528;48.814;8.904;2023-06-24T19:54:18;3.90;;;2.72;;
79126;SDS011;68528;48.814;8.904;2023-06-24T19:56:46;4.10;;;2.72;;
79126;SDS011;68528;48.814;8.904;2023-06-24T19:59:11;3.97;;;2.67;;
79126;SDS011;68528;48.814;8.904;2023-06-24T20:01:36;6.50;;;3.05;;
79126;SDS011;68528;48.814;8.904;2023-06-24T20:04:02;4.38;;;2.90;;
79126;SDS011;68528;48.814;8.904;2023-06-24T20:06:30;4.97;;;2.90;;
79126;SDS011;68528;48.814;8.904;2023-06-24T20:08:56;4.53;;;3.03;;
79126;SDS011;68528;48.814;8.904;2023-06-24T20:11:23;4.30;;;2.78;;
79126;SDS011;68528;48.814;8.904;2023-06-24T20:14:32;4.18;;;2.90;;
79126;SDS011;68528;48.814;8.904;2023-06-24T20:16:59;5.15;;;3.33;;
79126;SDS011;68528;48.814;8.904;2023-06-24T20:19:45;6.75;;;3.88;;
79126;SDS011;68528;48.814;8.904;2023-06-24T20:22:13;9.20;;;4.53;;
79126;SDS011;68528;48.814;8.904;2023-06-24T20:25:31;5.35;;;3.35;;
79126;SDS011;68528;48.814;8.904;2023-06-24T20:33:58;4.43;;;2.60;;
79126;SDS011;68528;48.814;8.904;2023-06-24T20:36:23;4.13;;;2.95;;
79126;SDS011;68528;48.814;8.904;2023-06-24T20:38:49;6.20;;;2.90;;
79126;SDS011;68528;48.814;8.904;2023-06-24T20:41:23;4.60;;;2.80;;
79126;SDS011;68528;48.814;8.904;2023-06-24T20:44:13;4.35;;;2.50;;
79126;SDS011;68528;48.814;8.904;2023-06-24T20:46:57;3.97;;;2.60;;
79126;SDS011;68528;48.814;8.904;2023-06-24T20:49:48;6.13;;;2.75;;
79126;SDS011;68528;48.814;8.904;2023-06-24T20:58:24;3.72;;;2.17;;
79126;SDS011;68528;48.814;8.904;2023-06-24T21:00:50;4.43;;;2.67;;
79126;SDS011;68528;48.814;8.904;2023-06-24T21:03:17;5.30;;;2.60;;
79126;SDS011;68528;48.814;8.904;2023-06-24T21:05:43;3.63;;;2.50;;
79126;SDS011;68528;48.814;8.904;2023-06-24T21:08:09;7.47;;;2.58;;
79126;SDS011;68528;48.814;8.904;2023-06-24T21:10:34;4.22;;;2.60;;
79126;SDS011;68528;48.814;8.904;2023-06-24T21:13:00;4.22;;;2.63;;
79126;SDS011;68528;48.814;8.904;2023-06-24T21:15:25;6.07;;;2.30;;
79126;SDS011;68528;48.814;8.904;2023-06-24T21:17:53;5.85;;;3.00;;
79126;SDS011;68528;48.814;8.904;2023-06-24T21:20:20;4.60;;;2.65;;
79126;SDS011;68528;48.814;8.904;2023-06-24T21:22:45;4.00;;;2.78;;
79126;SDS011;68528;48.814;8.904;2023-06-24T21:25:10;5.72;;;2.67;;
79126;SDS011;68528;48.814;8.904;2023-06-24T21:27:36;3.92;;;2.70;;
79126;SDS011;68528;48.814;8.904;2023-06-24T21:30:03;5.88;;;3.05;;
79126;SDS011;68528;48.814;8.904;2023-06-24T21:32:29;3.75;;;2.60;;
79126;SDS011;68528;48.814;8.904;2023-06-24T21:34:54;5.93;;;3.42;;
79126;SDS011;68528;48.814;8.904;2023-06-24T21:37:19;4.68;;;2.90;;
79126;SDS011;68528;48.814;8.904;2023-06-24T21:39:47;5.53;;;3.10;;
79126;SDS011;68528;48.814;8.904;2023-06-24T21:42:34;6.05;;;3.10;;
79126;SDS011;68528;48.814;8.904;2023-06-24T21:45:01;5.63;;;3.08;;
79126;SDS011;68528;48.814;8.904;2023-06-24T21:47:29;8.32;;;3.65;;
79126;SDS011;68528;48.814;8.904;2023-06-24T21:49:59;4.88;;;3.30;;
79126;SDS011;68528;48.814;8.904;2023-06-24T21:52:24;7.28;;;4.07;;
79126;SDS011;68528;48.814;8.904;2023-06-24T21:57:46;6.90;;;2.65;;
79126;SDS011;68528;48.814;8.904;2023-06-24T22:00:13;7.30;;;2.95;;
79126;SDS011;68528;48.814;8.904;2023-06-24T22:02:43;5.63;;;2.78;;
79126;SDS011;68528;48.814;8.904;2023-06-24T22:05:16;4.40;;;2.80;;
79126;SDS011;68528;48.814;8.904;2023-06-24T22:07:41;4.65;;;2.80;;
79126;SDS011;68528;48.814;8.904;2023-06-24T22:10:14;6.72;;;2.78;;
79126;SDS011;68528;48.814;8.904;2023-06-24T22:16:11;9.27;;;3.35;;
79126;SDS011;68528;48.814;8.904;2023-06-24T22:18:37;4.43;;;2.65;;
79126;SDS011;68528;48.814;8.904;2023-06-24T22:21:03;4.57;;;2.53;;
79126;SDS011;68528;48.814;8.904;2023-06-24T22:23:28;4.32;;;3.10;;
79126;SDS011;68528;48.814;8.904;2023-06-24T22:25:56;6.65;;;3.35;;
79126;SDS011;68528;48.814;8.904;2023-06-24T22:28:22;4.57;;;3.45;;
79126;SDS011;68528;48.814;8.904;2023-06-24T22:30:47;5.78;;;3.85;;
79126;SDS011;68528;48.814;8.904;2023-06-24T22:33:17;6.45;;;4.13;;
79126;SDS011;68528;48.814;8.904;2023-06-24T22:54:39;6.57;;;3.58;;
79126;SDS011;68528;48.814;8.904;2023-06-24T22:57:06;7.00;;;3.78;;
79126;SDS011;68528;48.814;8.904;2023-06-24T22:59:34;5.97;;;3.58;;
79126;SDS011;68528;48.814;8.904;2023-06-24T23:01:59;5.32;;;3.65;;
79126;SDS011;68528;48.814;8.904;2023-06-24T23:04:27;6.85;;;3.30;;
79126;SDS011;68528;48.814;8.904;2023-06-24T23:06:53;8.45;;;3.85;;
79126;SDS011;68528;48.814;8.904;2023-06-24T23:09:19;4.43;;;3.38;;
79126;SDS011;68528;48.814;8.904;2023-06-24T23:11:48;4.88;;;3.25;;
79126;SDS011;68528;48.814;8.904;2023-06-24T23:14:15;6.93;;;3.60;;
79126;SDS011;68528;48.814;8.904;2023-06-24T23:16:41;5.25;;;3.42;;
79126;SDS011;68528;48.814;8.904;2023-06-24T23:19:07;6.03;;;3.92;;
79126;SDS011;68528;48.814;8.904;2023-06-24T23:21:33;6.95;;;3.70;;
79126;SDS011;68528;48.814;8.904;2023-06-24T23:23:59;4.18;;;3.50;;
79126;SDS011;68528;48.814;8.904;2023-06-24T23:26:26;4.47;;;3.25;;
79126;SDS011;68528;48.814;8.904;2023-06-24T23:29:07;5.32;;;3.42;;
79126;SDS011;68528;48.814;8.904;2023-06-24T23:31:37;4.85;;;3.28;;
79126;SDS011;68528;48.814;8.904;2023-06-24T23:34:04;6.43;;;3.70;;
79126;SDS011;68528;48.814;8.904;2023-06-24T23:36:32;5.30;;;3.60;;
79126;SDS011;68528;48.814;8.904;2023-06-24T23:39:01;5.60;;;3.28;;
79126;SDS011;68528;48.814;8.904;2023-06-24T23:41:29;4.40;;;3.20;;
79126;SDS011;68528;48.814;8.904;2023-06-24T23:46:41;4.30;;;3.10;;
79126;SDS011;68528;48.814;8.904;2023-06-24T23:49:19;4.15;;;2.60;;
